createdAt,value
2023-02-08T00:01:00.440Z,10.83
2023-02-08T00:03:29.042Z,11.53
2023-02-08T00:05:56.351Z,10.73
2023-02-08T00:08:23.629Z,10.60
2023-02-08T00:10:50.970Z,10.33
2023-02-08T00:13:18.609Z,10.70
2023-02-08T00:15:46.383Z,11.17
2023-02-08T00:18:14.206Z,11.27
2023-02-08T00:20:43.097Z,11.83
2023-02-08T00:23:11.429Z,11.40
2023-02-08T00:25:39.802Z,11.77
2023-02-08T00:28:11.362Z,9.90
2023-02-08T00:30:39.510Z,11.17
2023-02-08T00:33:08.480Z,12.20
2023-02-08T00:35:36.120Z,12.20
2023-02-08T00:38:04.122Z,12.13
2023-02-08T00:40:31.289Z,10.60
2023-02-08T00:42:58.457Z,11.27
2023-02-08T00:45:26.251Z,10.57
2023-02-08T00:47:53.430Z,11.03
2023-02-08T00:50:21.969Z,11.20
2023-02-08T00:52:49.185Z,12.70
2023-02-08T00:55:16.487Z,12.27
2023-02-08T00:57:43.671Z,11.03
2023-02-08T01:00:11.724Z,11.17
2023-02-08T01:02:39.532Z,10.50
2023-02-08T01:05:07.432Z,11.90
2023-02-08T01:07:37.971Z,12.57
2023-02-08T01:10:07.238Z,11.30
2023-02-08T01:12:35.216Z,11.30
2023-02-08T01:15:02.436Z,11.03
2023-02-08T01:17:29.735Z,11.80
2023-02-08T01:19:57.045Z,12.77
2023-02-08T01:22:24.270Z,11.03
2023-02-08T01:24:51.551Z,10.50
2023-02-08T01:27:18.752Z,10.00
2023-02-08T01:29:46.917Z,10.80
2023-02-08T01:32:14.578Z,10.80
2023-02-08T01:34:44.163Z,11.50
2023-02-08T01:37:11.641Z,11.73
2023-02-08T01:39:38.816Z,10.40
2023-02-08T01:42:06.305Z,9.87
2023-02-08T01:45:10.842Z,11.33
2023-02-08T01:47:38.662Z,10.57
2023-02-08T01:50:07.071Z,12.10
2023-02-08T01:52:34.747Z,11.67
2023-02-08T01:55:22.878Z,12.30
2023-02-08T01:57:54.728Z,11.87
2023-02-08T02:00:22.832Z,12.83
2023-02-08T02:02:53.500Z,12.90
2023-02-08T02:05:23.748Z,11.13
2023-02-08T02:07:53.305Z,12.23
2023-02-08T02:10:35.265Z,10.73
2023-02-08T02:13:16.654Z,10.77
2023-02-08T02:15:45.602Z,10.57
2023-02-08T02:18:17.855Z,11.13
2023-02-08T02:20:57.240Z,8.67
2023-02-08T02:24:01.708Z,10.20
2023-02-08T02:26:58.731Z,10.47
2023-02-08T02:29:54.033Z,9.87
2023-02-08T02:33:01.672Z,10.27
2023-02-08T02:35:31.940Z,11.00
2023-02-08T02:38:15.030Z,9.70
2023-02-08T02:40:54.549Z,10.50
2023-02-08T02:43:42.771Z,10.50
2023-02-08T02:46:25.866Z,10.70
2023-02-08T02:49:05.452Z,9.80
2023-02-08T02:51:46.363Z,9.10
2023-02-08T02:54:23.255Z,10.57
2023-02-08T02:56:55.690Z,10.83
2023-02-08T02:59:23.811Z,10.90
2023-02-08T03:01:54.736Z,10.93
2023-02-08T03:04:34.247Z,10.83
2023-02-08T03:07:17.867Z,9.97
2023-02-08T03:10:12.905Z,11.03
2023-02-08T03:12:50.125Z,10.50
2023-02-08T03:15:20.018Z,10.77
2023-02-08T03:18:15.165Z,10.03
2023-02-08T03:21:00.713Z,11.57
2023-02-08T03:23:41.502Z,12.00
2023-02-08T03:26:21.009Z,11.67
2023-02-08T03:28:58.460Z,11.07
2023-02-08T03:31:41.238Z,9.87
2023-02-08T03:34:17.542Z,10.53
2023-02-08T03:36:59.946Z,11.30
2023-02-08T03:39:29.853Z,9.67
2023-02-08T03:42:03.836Z,11.40
2023-02-08T03:44:36.220Z,10.77
2023-02-08T03:47:16.442Z,11.60
2023-02-08T03:49:48.561Z,10.30
2023-02-08T03:52:16.419Z,11.10
2023-02-08T03:55:00.307Z,11.57
2023-02-08T03:57:38.310Z,11.30
2023-02-08T04:00:12.655Z,12.23
2023-02-08T04:02:47.709Z,12.27
2023-02-08T04:05:15.239Z,13.07
2023-02-08T04:07:42.790Z,12.67
2023-02-08T04:10:10.040Z,13.00
2023-02-08T04:12:37.756Z,11.00
2023-02-08T04:15:05.513Z,10.20
2023-02-08T04:17:33.247Z,9.53
2023-02-08T04:20:00.436Z,9.60
2023-02-08T04:22:28.032Z,10.10
2023-02-08T04:24:55.195Z,10.00
2023-02-08T04:27:22.336Z,9.17
2023-02-08T04:29:49.483Z,11.40
2023-02-08T04:32:16.899Z,10.93
2023-02-08T04:34:44.359Z,11.97
2023-02-08T04:37:11.971Z,11.13
2023-02-08T04:39:39.699Z,11.77
2023-02-08T04:42:08.241Z,11.90
2023-02-08T04:44:35.645Z,12.70
2023-02-08T04:47:02.876Z,12.33
2023-02-08T04:49:31.715Z,12.97
2023-02-08T04:51:58.965Z,12.73
2023-02-08T04:54:27.110Z,13.50
2023-02-08T04:56:54.990Z,14.30
2023-02-08T04:59:22.285Z,13.00
2023-02-08T05:01:49.490Z,14.90
2023-02-08T05:04:17.125Z,14.80
2023-02-08T05:06:46.088Z,14.50
2023-02-08T05:09:15.110Z,13.60
2023-02-08T05:11:42.707Z,13.30
2023-02-08T05:14:09.936Z,14.07
2023-02-08T05:16:37.173Z,15.80
2023-02-08T05:19:04.336Z,14.43
2023-02-08T05:21:32.197Z,14.70
2023-02-08T05:23:59.532Z,15.70
2023-02-08T05:26:26.942Z,14.60
2023-02-08T05:28:54.596Z,13.13
2023-02-08T05:31:24.512Z,13.83
2023-02-08T05:33:52.907Z,15.07
2023-02-08T05:36:21.197Z,14.90
2023-02-08T05:38:49.682Z,15.50
2023-02-08T05:41:17.813Z,14.97
2023-02-08T05:43:45.908Z,15.97
2023-02-08T05:46:13.444Z,14.57
2023-02-08T05:48:41.098Z,14.20
2023-02-08T05:51:08.922Z,17.63
2023-02-08T05:53:36.826Z,16.30
2023-02-08T05:56:04.591Z,16.87
2023-02-08T05:58:31.870Z,15.70
2023-02-08T06:01:00.123Z,15.30
2023-02-08T06:03:27.598Z,16.60
2023-02-08T06:05:55.254Z,13.93
2023-02-08T06:08:22.425Z,15.50
2023-02-08T06:10:49.927Z,16.23
2023-02-08T06:13:17.197Z,14.70
2023-02-08T06:15:45.168Z,15.23
2023-02-08T06:18:12.537Z,15.17
2023-02-08T06:20:40.810Z,12.83
2023-02-08T06:23:08.308Z,13.83
2023-02-08T06:25:36.082Z,14.47
2023-02-08T06:28:03.361Z,15.20
2023-02-08T06:30:30.622Z,15.20
2023-02-08T06:32:58.062Z,13.93
2023-02-08T06:35:25.235Z,13.77
2023-02-08T06:37:52.478Z,14.00
2023-02-08T06:40:19.915Z,14.63
2023-02-08T06:42:48.636Z,14.20
2023-02-08T06:45:16.152Z,19.20
2023-02-08T06:47:43.454Z,16.83
2023-02-08T06:50:11.197Z,14.67
2023-02-08T06:52:38.362Z,13.83
2023-02-08T06:55:06.120Z,14.70
2023-02-08T06:57:34.176Z,12.77
2023-02-08T07:00:01.412Z,14.20
2023-02-08T07:02:28.796Z,15.73
2023-02-08T07:04:56.370Z,15.80
2023-02-08T07:07:24.642Z,14.40
2023-02-08T07:09:51.881Z,14.33
2023-02-08T07:12:19.096Z,14.40
2023-02-08T07:14:46.281Z,15.10
2023-02-08T07:17:14.233Z,15.00
2023-02-08T07:19:41.515Z,14.63
2023-02-08T07:22:08.816Z,15.70
2023-02-08T07:24:40.904Z,15.97
2023-02-08T07:27:10.063Z,16.10
2023-02-08T07:29:40.074Z,15.33
2023-02-08T07:32:08.167Z,14.50
2023-02-08T07:34:37.516Z,15.87
2023-02-08T07:37:04.903Z,16.97
2023-02-08T07:39:32.877Z,17.30
2023-02-08T07:42:00.210Z,17.13
2023-02-08T07:44:31.753Z,15.10
2023-02-08T07:46:59.094Z,17.47
2023-02-08T07:49:26.286Z,17.75
2023-02-08T07:51:53.453Z,17.60
2023-02-08T07:54:20.693Z,16.50
2023-02-08T07:56:47.905Z,18.23
2023-02-08T07:59:15.087Z,23.65
2023-02-08T08:01:42.482Z,23.90
2023-02-08T08:04:09.822Z,19.33
2023-02-08T08:06:37.012Z,18.67
2023-02-08T08:09:05.631Z,18.63
2023-02-08T08:11:32.823Z,19.95
2023-02-08T08:13:59.987Z,17.97
2023-02-08T08:16:27.308Z,16.60
2023-02-08T08:18:54.854Z,17.10
2023-02-08T08:21:26.986Z,16.23
2023-02-08T08:23:55.354Z,16.20
2023-02-08T08:26:22.761Z,16.33
2023-02-08T08:28:50.006Z,14.40
2023-02-08T08:31:20.439Z,15.90
2023-02-08T08:33:51.043Z,17.17
2023-02-08T08:36:18.951Z,16.53
2023-02-08T08:38:46.304Z,16.13
2023-02-08T08:41:20.979Z,16.33
2023-02-08T08:43:48.911Z,18.47
2023-02-08T08:46:16.648Z,17.80
2023-02-08T08:48:44.291Z,18.17
2023-02-08T08:51:12.070Z,17.03
2023-02-08T08:53:39.522Z,18.60
2023-02-08T08:56:07.141Z,18.83
2023-02-08T08:58:34.488Z,19.00
2023-02-08T09:01:02.143Z,20.37
2023-02-08T09:03:30.438Z,18.57
2023-02-08T09:05:57.574Z,20.33
2023-02-08T09:08:24.745Z,20.13
2023-02-08T09:10:52.013Z,20.13
2023-02-08T09:13:20.038Z,17.60
2023-02-08T09:15:48.659Z,19.15
2023-02-08T09:18:16.778Z,17.80
2023-02-08T09:20:44.226Z,17.77
2023-02-08T09:23:12.641Z,19.52
2023-02-08T09:25:40.493Z,18.53
2023-02-08T09:28:07.862Z,18.00
2023-02-08T09:30:35.486Z,20.97
2023-02-08T09:33:03.392Z,22.20
2023-02-08T09:35:30.629Z,21.17
2023-02-08T09:38:02.216Z,17.67
2023-02-08T09:40:47.326Z,18.90
2023-02-08T09:43:31.441Z,21.80
2023-02-08T09:46:07.868Z,18.80
2023-02-08T09:48:37.601Z,16.17
2023-02-08T09:51:19.342Z,17.13
2023-02-08T09:53:51.504Z,16.70
2023-02-08T09:56:31.962Z,15.40
2023-02-08T09:59:01.353Z,14.27
2023-02-08T10:01:31.694Z,15.60
2023-02-08T10:04:39.792Z,12.47
2023-02-08T10:07:10.832Z,12.00
2023-02-08T10:09:38.053Z,12.70
2023-02-08T10:12:33.753Z,11.73
2023-02-08T10:15:26.303Z,11.57
2023-02-08T10:18:52.809Z,14.70
2023-02-08T10:21:44.757Z,11.47
2023-02-08T10:24:28.972Z,11.57
2023-02-08T10:27:16.921Z,9.87
2023-02-08T10:30:12.030Z,11.98
2023-02-08T10:32:58.176Z,12.33
2023-02-08T10:35:37.649Z,10.67
2023-02-08T10:38:20.205Z,10.10
2023-02-08T10:40:57.994Z,10.67
2023-02-08T10:43:38.153Z,12.20
2023-02-08T10:46:20.107Z,11.47
2023-02-08T10:48:56.063Z,11.80
2023-02-08T10:51:23.248Z,12.33
2023-02-08T10:53:50.671Z,11.30
2023-02-08T10:56:29.810Z,10.53
2023-02-08T10:58:58.743Z,9.87
2023-02-08T11:01:27.555Z,10.43
2023-02-08T11:04:06.519Z,10.50
2023-02-08T11:06:38.960Z,11.20
2023-02-08T11:09:06.792Z,10.93
2023-02-08T11:11:39.436Z,10.47
2023-02-08T11:14:45.975Z,9.87
2023-02-08T11:17:31.168Z,8.90
2023-02-08T11:20:00.103Z,8.60
2023-02-08T11:22:34.313Z,9.60
2023-02-08T11:25:07.467Z,9.90
2023-02-08T11:27:39.287Z,9.90
2023-02-08T11:30:09.472Z,9.82
2023-02-08T11:32:37.361Z,9.03
2023-02-08T11:35:27.135Z,8.80
2023-02-08T11:37:56.840Z,7.27
2023-02-08T11:40:35.469Z,7.63
2023-02-08T11:43:04.938Z,8.03
2023-02-08T11:45:35.914Z,6.90
2023-02-08T11:48:05.438Z,7.90
2023-02-08T11:50:36.778Z,8.37
2023-02-08T11:53:07.286Z,7.43
2023-02-08T11:55:35.403Z,9.03
2023-02-08T11:58:19.155Z,9.00
2023-02-08T12:01:00.172Z,8.20
2023-02-08T12:03:33.592Z,7.60
2023-02-08T12:06:25.665Z,7.47
2023-02-08T12:09:17.746Z,8.13
2023-02-08T12:12:05.912Z,8.27
2023-02-08T12:15:05.697Z,7.30
2023-02-08T12:17:59.602Z,8.45
2023-02-08T12:20:37.930Z,7.43
2023-02-08T12:23:17.285Z,8.60
2023-02-08T12:25:57.359Z,7.87
2023-02-08T12:28:50.356Z,7.30
2023-02-08T12:31:45.140Z,8.25
2023-02-08T12:34:40.138Z,7.60
2023-02-08T12:37:48.433Z,7.80
2023-02-08T12:40:49.750Z,9.50
2023-02-08T12:44:02.171Z,7.50
2023-02-08T12:46:47.700Z,8.00
2023-02-08T12:49:50.277Z,7.43
2023-02-08T12:52:26.792Z,8.53
2023-02-08T12:54:57.673Z,8.00
2023-02-08T12:57:27.275Z,6.97
2023-02-08T12:59:58.211Z,7.70
2023-02-08T13:02:32.889Z,6.50
2023-02-08T13:05:05.151Z,7.00
2023-02-08T13:07:42.196Z,7.17
2023-02-08T13:10:26.833Z,6.60
2023-02-08T13:12:58.411Z,5.57
2023-02-08T13:15:35.357Z,5.67
2023-02-08T13:18:20.043Z,6.53
2023-02-08T13:20:52.512Z,4.97
2023-02-08T13:23:28.919Z,5.57
2023-02-08T13:26:00.988Z,5.10
2023-02-08T13:28:28.623Z,5.03
2023-02-08T13:31:03.962Z,4.50
2023-02-08T13:33:59.316Z,3.23
2023-02-08T13:36:40.859Z,4.50
2023-02-08T13:39:26.628Z,4.03
2023-02-08T13:41:56.363Z,3.80
2023-02-08T13:44:36.748Z,4.00
2023-02-08T13:47:07.123Z,4.30
2023-02-08T13:49:49.334Z,4.17
2023-02-08T13:52:47.460Z,3.30
2023-02-08T13:55:38.397Z,3.30
2023-02-08T13:58:34.344Z,3.20
2023-02-08T14:01:23.440Z,4.03
2023-02-08T14:04:09.978Z,3.88
2023-02-08T14:06:50.729Z,4.18
2023-02-08T14:09:41.595Z,3.37
2023-02-08T14:12:34.790Z,3.23
2023-02-08T14:15:15.237Z,3.97
2023-02-08T14:17:45.273Z,3.13
2023-02-08T14:20:36.456Z,3.50
2023-02-08T14:23:07.829Z,2.97
2023-02-08T14:25:44.999Z,3.90
2023-02-08T14:28:30.233Z,4.43
2023-02-08T14:31:00.456Z,4.40
2023-02-08T14:33:38.528Z,3.80
2023-02-08T14:36:21.135Z,3.70
2023-02-08T14:38:54.297Z,4.57
2023-02-08T14:41:47.960Z,3.60
2023-02-08T14:44:43.344Z,3.50
2023-02-08T14:47:25.880Z,4.47
2023-02-08T14:50:17.663Z,4.10
2023-02-08T14:53:01.253Z,3.20
2023-02-08T14:55:36.875Z,4.40
2023-02-08T14:58:08.787Z,4.13
2023-02-08T15:00:38.758Z,4.00
2023-02-08T15:03:14.495Z,4.30
2023-02-08T15:05:58.027Z,4.63
2023-02-08T15:08:25.549Z,5.00
2023-02-08T15:10:52.732Z,4.17
2023-02-08T15:13:24.217Z,5.27
2023-02-08T15:15:54.613Z,4.60
2023-02-08T15:18:30.551Z,3.93
2023-02-08T15:21:15.495Z,5.27
2023-02-08T15:23:42.722Z,6.17
2023-02-08T15:26:23.250Z,4.60
2023-02-08T15:28:50.445Z,4.77
2023-02-08T15:31:22.127Z,4.47
2023-02-08T15:33:51.876Z,5.10
2023-02-08T15:36:29.593Z,4.50
2023-02-08T15:38:58.995Z,4.63
2023-02-08T15:41:29.930Z,4.33
2023-02-08T15:44:19.754Z,4.40
2023-02-08T15:46:49.041Z,4.20
2023-02-08T15:49:26.861Z,4.37
2023-02-08T15:51:56.867Z,4.50
2023-02-08T15:54:25.409Z,3.37
2023-02-08T15:57:02.330Z,3.70
2023-02-08T15:59:34.628Z,4.43
2023-02-08T16:02:31.006Z,4.60
2023-02-08T16:04:59.935Z,4.03
2023-02-08T16:07:43.344Z,4.00
2023-02-08T16:10:33.717Z,3.43
2023-02-08T16:13:05.787Z,4.87
2023-02-08T16:16:07.175Z,5.50
2023-02-08T16:18:40.606Z,6.13
2023-02-08T16:21:21.085Z,5.57
2023-02-08T16:23:52.625Z,5.93
2023-02-08T16:26:28.442Z,6.60
2023-02-08T16:28:59.192Z,6.17
2023-02-08T16:31:30.426Z,6.10
2023-02-08T16:34:07.405Z,6.27
2023-02-08T16:36:41.709Z,6.37
2023-02-08T16:39:14.878Z,7.40
2023-02-08T16:42:06.399Z,6.20
2023-02-08T16:45:17.202Z,6.63
2023-02-08T16:47:51.764Z,7.07
2023-02-08T16:50:25.344Z,7.77
2023-02-08T16:53:03.662Z,6.67
2023-02-08T16:55:36.041Z,6.50
2023-02-08T16:58:03.329Z,6.70
2023-02-08T17:00:34.441Z,5.13
2023-02-08T17:03:02.239Z,6.80
2023-02-08T17:05:37.511Z,5.97
2023-02-08T17:08:08.257Z,6.07
2023-02-08T17:10:35.862Z,6.07
2023-02-08T17:13:19.408Z,6.97
2023-02-08T17:15:49.828Z,6.90
2023-02-08T17:18:17.463Z,6.57
2023-02-08T17:20:45.770Z,6.63
2023-02-08T17:23:15.706Z,7.70
2023-02-08T17:25:44.407Z,7.10
2023-02-08T17:28:19.913Z,7.33
2023-02-08T17:30:49.088Z,6.80
2023-02-08T17:33:20.328Z,8.40
2023-02-08T17:35:50.645Z,7.97
2023-02-08T17:38:19.860Z,7.77
2023-02-08T17:40:47.579Z,8.70
2023-02-08T17:43:15.520Z,7.90
2023-02-08T17:45:46.763Z,8.13
2023-02-08T17:48:14.449Z,8.73
2023-02-08T17:50:47.633Z,9.00
2023-02-08T17:53:15.899Z,8.53
2023-02-08T17:55:47.063Z,7.33
2023-02-08T17:58:14.545Z,9.07
2023-02-08T18:00:41.992Z,9.17
2023-02-08T18:03:09.785Z,9.43
2023-02-08T18:05:37.576Z,10.23
2023-02-08T18:08:05.656Z,8.97
2023-02-08T18:10:33.008Z,9.30
2023-02-08T18:13:00.803Z,9.90
2023-02-08T18:15:28.004Z,9.73
2023-02-08T18:17:55.205Z,9.53
2023-02-08T18:20:22.361Z,10.83
2023-02-08T18:22:49.637Z,10.10
2023-02-08T18:25:17.517Z,10.83
2023-02-08T18:27:44.716Z,10.50
2023-02-08T18:30:13.045Z,11.87
2023-02-08T18:32:40.438Z,11.20
2023-02-08T18:35:08.973Z,12.47
2023-02-08T18:37:37.524Z,10.73
2023-02-08T18:40:06.399Z,11.00
2023-02-08T18:42:35.879Z,10.77
2023-02-08T18:45:04.898Z,10.60
2023-02-08T18:47:32.460Z,11.17
2023-02-08T18:49:59.829Z,12.13
2023-02-08T18:52:27.058Z,11.00
2023-02-08T18:54:54.307Z,10.93
2023-02-08T18:57:21.539Z,10.67
2023-02-08T18:59:50.044Z,7.57
2023-02-08T19:02:22.052Z,11.43
2023-02-08T19:04:50.359Z,13.67
2023-02-08T19:07:17.627Z,14.60
2023-02-08T19:09:44.916Z,12.17
2023-02-08T19:12:15.257Z,14.27
2023-02-08T19:14:43.606Z,13.83
2023-02-08T19:17:13.614Z,13.47
2023-02-08T19:19:42.343Z,13.40
2023-02-08T19:22:10.588Z,11.00
2023-02-08T19:24:37.871Z,15.50
2023-02-08T19:27:05.290Z,12.43
2023-02-08T19:29:34.323Z,14.07
2023-02-08T19:32:02.107Z,13.40
2023-02-08T19:34:29.338Z,13.60
2023-02-08T19:36:56.817Z,14.97
2023-02-08T19:39:27.149Z,15.70
2023-02-08T19:41:58.993Z,14.27
2023-02-08T19:44:30.490Z,15.23
2023-02-08T19:46:58.445Z,14.20
2023-02-08T19:49:27.254Z,16.50
2023-02-08T19:51:55.207Z,15.43
2023-02-08T19:54:22.512Z,15.70
2023-02-08T19:56:50.317Z,13.03
2023-02-08T19:59:21.749Z,15.07
2023-02-08T20:01:49.189Z,17.10
2023-02-08T20:04:17.680Z,13.03
2023-02-08T20:06:45.206Z,16.70
2023-02-08T20:09:15.180Z,15.40
2023-02-08T20:11:56.453Z,14.37
2023-02-08T20:14:25.102Z,17.90
2023-02-08T20:16:52.515Z,15.23
2023-02-08T20:19:19.780Z,17.73
2023-02-08T20:21:47.020Z,16.93
2023-02-08T20:24:14.371Z,17.30
2023-02-08T20:26:43.452Z,21.10
2023-02-08T20:29:12.136Z,16.70
2023-02-08T20:31:42.524Z,18.10
2023-02-08T20:34:13.002Z,17.17
2023-02-08T20:36:44.155Z,16.73
2023-02-08T20:39:15.217Z,18.00
2023-02-08T20:41:44.311Z,17.50
2023-02-08T20:44:13.330Z,17.40
2023-02-08T20:46:44.316Z,16.97
2023-02-08T20:49:21.272Z,17.93
2023-02-08T20:51:52.203Z,17.50
2023-02-08T20:54:19.659Z,17.90
2023-02-08T20:56:47.569Z,18.57
2023-02-08T20:59:15.783Z,18.37
2023-02-08T21:01:46.205Z,18.87
2023-02-08T21:04:13.739Z,17.93
2023-02-08T21:06:44.452Z,20.17
2023-02-08T21:09:15.156Z,19.83
2023-02-08T21:11:43.299Z,18.60
2023-02-08T21:14:15.351Z,19.03
2023-02-08T21:16:43.150Z,21.20
2023-02-08T21:19:12.913Z,19.20
2023-02-08T21:21:40.183Z,19.13
2023-02-08T21:24:07.731Z,18.83
2023-02-08T21:26:35.614Z,19.80
2023-02-08T21:29:06.003Z,18.70
2023-02-08T21:31:36.428Z,19.20
2023-02-08T21:34:05.916Z,19.53
2023-02-08T21:36:34.307Z,15.20
2023-02-08T21:39:02.112Z,19.67
2023-02-08T21:41:32.443Z,16.60
2023-02-08T21:44:03.574Z,20.40
2023-02-08T21:46:31.934Z,20.00
2023-02-08T21:49:17.823Z,18.37
2023-02-08T21:52:04.149Z,19.23
2023-02-08T21:54:43.989Z,19.90
2023-02-08T21:57:16.331Z,19.40
2023-02-08T21:59:44.359Z,19.60
2023-02-08T22:02:29.614Z,19.03
2023-02-08T22:05:20.530Z,17.97
2023-02-08T22:07:52.442Z,19.67
2023-02-08T22:10:22.008Z,19.23
2023-02-08T22:12:49.988Z,21.17
2023-02-08T22:15:19.197Z,19.27
2023-02-08T22:17:47.382Z,16.90
2023-02-08T22:20:15.200Z,20.83
2023-02-08T22:22:42.540Z,17.10
2023-02-08T22:25:09.808Z,20.20
2023-02-08T22:27:38.951Z,19.73
2023-02-08T22:30:07.838Z,20.47
2023-02-08T22:32:35.373Z,20.03
2023-02-08T22:35:02.553Z,17.47
2023-02-08T22:37:32.572Z,16.10
2023-02-08T22:39:59.817Z,21.57
2023-02-08T22:42:28.292Z,20.97
2023-02-08T22:44:55.578Z,21.87
2023-02-08T22:47:24.148Z,23.67
2023-02-08T22:49:51.997Z,20.30
2023-02-08T22:52:19.230Z,21.73
2023-02-08T22:54:47.512Z,21.30
2023-02-08T22:57:14.713Z,12.73
2023-02-08T22:59:41.958Z,20.47
2023-02-08T23:02:09.470Z,21.20
2023-02-08T23:04:37.506Z,20.10
2023-02-08T23:07:04.980Z,21.27
2023-02-08T23:09:32.663Z,21.73
2023-02-08T23:11:59.918Z,20.77
2023-02-08T23:14:27.239Z,17.40
2023-02-08T23:16:54.464Z,20.87
2023-02-08T23:19:21.707Z,20.80
2023-02-08T23:21:49.119Z,21.87
2023-02-08T23:24:16.548Z,22.20
2023-02-08T23:26:43.766Z,21.53
2023-02-08T23:29:12.434Z,16.37
2023-02-08T23:31:40.780Z,22.90
2023-02-08T23:34:08.166Z,21.70
2023-02-08T23:36:35.425Z,19.77
2023-02-08T23:39:04.332Z,21.17
2023-02-08T23:41:32.433Z,17.73
2023-02-08T23:43:59.613Z,17.67
2023-02-08T23:46:29.125Z,20.17
2023-02-08T23:48:56.837Z,21.03
2023-02-08T23:51:25.367Z,20.67
2023-02-08T23:53:54.205Z,21.07
2023-02-08T23:56:27.954Z,21.40
2023-02-08T23:58:58.610Z,21.63
